Time,TemperatureF,DewpointF,PressureIn,WindDirection,WindDirectionDegrees,WindSpeedMPH,WindSpeedGustMPH,Humidity,HourlyPrecipIn,Conditions,Clouds,dailyrainin,SoftwareType,DateUTC
2013-03-07 00:00:00,77.9,75.4,29.75,ESE,109,0.0,5.0,92,0.00,,,0.02,Wunderground v.1.15,2013-03-06 14:00:00,
2013-03-07 00:10:00,77.6,75.4,29.75,ESE,109,0.0,5.0,93,0.00,,,0.00,Wunderground v.1.15,2013-03-06 14:10:00,
2013-03-07 00:20:00,77.4,75.5,29.75,ESE,109,0.0,5.0,94,0.00,,,0.01,Wunderground v.1.15,2013-03-06 14:20:00,
2013-03-07 00:30:00,77.4,75.5,29.75,ESE,108,0.0,5.0,94,0.00,,,0.01,Wunderground v.1.15,2013-03-06 14:30:00,
2013-03-07 00:40:00,77.4,75.5,29.75,ESE,109,1.0,1.0,94,0.00,,,0.01,Wunderground v.1.15,2013-03-06 14:40:00,
2013-03-07 00:50:00,77.4,75.5,29.75,ESE,108,0.0,5.0,94,0.00,,,0.01,Wunderground v.1.15,2013-03-06 14:50:00,
2013-03-07 00:55:00,77.4,75.5,29.75,ESE,108,0.0,5.0,94,0.00,,,0.01,Wunderground v.1.15,2013-03-06 14:55:00,
2013-03-07 01:00:00,77.3,75.4,29.75,ESE,109,0.0,0.0,94,0.00,,,0.01,Wunderground v.1.15,2013-03-06 15:00:00,
2013-03-07 01:10:00,77.4,75.5,29.75,ESE,108,1.0,6.0,94,0.00,,,0.01,Wunderground v.1.15,2013-03-06 15:10:00,
2013-03-07 01:15:00,77.6,75.7,29.75,ESE,108,1.0,6.0,94,0.00,,,0.01,Wunderground v.1.15,2013-03-06 15:15:00,
2013-03-07 01:25:00,78.0,75.8,29.75,ESE,109,1.0,6.0,93,0.00,,,0.01,Wunderground v.1.15,2013-03-06 15:25:00,
2013-03-07 01:35:00,78.1,75.6,29.75,ESE,109,1.0,6.0,92,0.00,,,0.01,Wunderground v.1.15,2013-03-06 15:35:00,
2013-03-07 01:45:00,77.9,75.4,29.75,ESE,109,0.0,6.0,92,0.00,,,0.01,Wunderground v.1.15,2013-03-06 15:45:00,
2013-03-07 01:55:00,77.6,75.4,29.75,ESE,109,0.0,6.0,93,0.00,,,0.01,Wunderground v.1.15,2013-03-06 15:55:00,
2013-03-07 02:00:00,77.6,75.7,29.75,ESE,108,0.0,6.0,94,0.00,,,0.01,Wunderground v.1.15,2013-03-06 16:00:00,
2013-03-07 02:10:00,77.5,75.6,29.75,ESE,108,0.0,6.0,94,0.00,,,0.01,Wunderground v.1.15,2013-03-06 16:10:00,
2013-03-07 02:20:00,77.8,75.6,29.74,ESE,108,1.0,1.0,93,0.00,,,0.01,Wunderground v.1.15,2013-03-06 16:20:00,
2013-03-07 02:30:00,77.9,75.7,29.74,ESE,108,1.0,6.0,93,0.00,,,0.01,Wunderground v.1.15,2013-03-06 16:30:00,
2013-03-07 02:40:00,77.8,75.6,29.74,ESE,108,1.0,1.0,93,0.00,,,0.01,Wunderground v.1.15,2013-03-06 16:40:00,
2013-03-07 02:50:00,77.5,75.3,29.74,ESE,108,0.0,6.0,93,0.00,,,0.01,Wunderground v.1.15,2013-03-06 16:50:00,
2013-03-07 03:00:00,77.4,75.5,29.74,ESE,108,0.0,0.0,94,0.00,,,0.01,Wunderground v.1.15,2013-03-06 17:00:00,
2013-03-07 03:10:00,77.5,75.6,29.74,ESE,108,0.0,4.0,94,0.00,,,0.01,Wunderground v.1.15,2013-03-06 17:10:00,
2013-03-07 03:20:00,77.5,76.0,29.74,ESE,108,1.0,1.0,95,0.00,,,0.02,Wunderground v.1.15,2013-03-06 17:20:00,
2013-03-07 03:30:00,76.9,75.4,29.74,ESE,108,2.0,2.0,95,0.12,,,0.03,Wunderground v.1.15,2013-03-06 17:30:00,
2013-03-07 03:35:00,76.7,75.5,29.74,ESE,109,1.0,4.0,96,0.10,,,0.03,Wunderground v.1.15,2013-03-06 17:35:00,
2013-03-07 03:45:00,76.5,75.3,29.73,ESE,109,0.0,4.0,96,0.04,,,0.03,Wunderground v.1.15,2013-03-06 17:45:00,
2013-03-07 03:55:00,76.4,75.5,29.74,ESE,108,0.0,4.0,97,0.00,,,0.03,Wunderground v.1.15,2013-03-06 17:55:00,
2013-03-07 04:00:00,76.4,75.5,29.73,ESE,108,0.0,4.0,97,0.00,,,0.03,Wunderground v.1.15,2013-03-06 18:00:00,
2013-03-07 04:10:00,76.4,75.8,29.73,ESE,108,0.0,4.0,98,0.00,,,0.03,Wunderground v.1.15,2013-03-06 18:10:00,
2013-03-07 04:20:00,76.2,75.6,29.73,ESE,108,0.0,4.0,98,0.00,,,0.03,Wunderground v.1.15,2013-03-06 18:20:00,
2013-03-07 04:30:00,76.0,75.4,29.72,ESE,109,0.0,4.0,98,0.00,,,0.03,Wunderground v.1.15,2013-03-06 18:30:00,
2013-03-07 04:40:00,76.0,75.4,29.73,ESE,108,0.0,4.0,98,0.00,,,0.03,Wunderground v.1.15,2013-03-06 18:40:00,
2013-03-07 04:50:00,76.0,75.4,29.73,ESE,108,0.0,4.0,98,0.00,,,0.03,Wunderground v.1.15,2013-03-06 18:50:00,
2013-03-07 05:00:00,75.9,75.3,29.72,ESE,108,0.0,0.0,98,0.00,,,0.03,Wunderground v.1.15,2013-03-06 19:00:00,
2013-03-07 05:10:00,75.8,75.2,29.72,ESE,109,0.0,9.0,98,0.00,,,0.03,Wunderground v.1.15,2013-03-06 19:10:00,
2013-03-07 05:15:00,75.8,75.2,29.73,ESE,108,0.0,9.0,98,0.00,,,0.03,Wunderground v.1.15,2013-03-06 19:15:00,
2013-03-07 05:20:00,75.8,75.5,29.73,ESE,108,0.0,9.0,99,0.00,,,0.03,Wunderground v.1.15,2013-03-06 19:20:00,
2013-03-07 05:30:00,75.8,75.5,29.73,ESE,108,0.0,9.0,99,0.00,,,0.03,Wunderground v.1.15,2013-03-06 19:30:00,
2013-03-07 05:40:00,75.8,75.5,29.73,ESE,108,0.0,9.0,99,0.00,,,0.03,Wunderground v.1.15,2013-03-06 19:40:00,
2013-03-07 05:50:00,75.9,75.6,29.73,ESE,108,0.0,9.0,99,0.00,,,0.03,Wunderground v.1.15,2013-03-06 19:50:00,
2013-03-07 06:00:00,75.8,75.5,29.74,ESE,109,0.0,9.0,99,0.00,,,0.03,Wunderground v.1.15,2013-03-06 20:00:00,
2013-03-07 06:10:00,75.8,75.5,29.74,ESE,108,0.0,9.0,99,0.00,,,0.03,Wunderground v.1.15,2013-03-06 20:10:00,
2013-03-07 06:20:00,75.8,75.5,29.75,ESE,108,0.0,9.0,99,0.00,,,0.03,Wunderground v.1.15,2013-03-06 20:20:00,
2013-03-07 06:30:00,75.8,75.5,29.74,ESE,108,0.0,9.0,99,0.00,,,0.03,Wunderground v.1.15,2013-03-06 20:30:00,
2013-03-07 06:35:00,75.8,75.5,29.74,ESE,109,0.0,9.0,99,0.00,,,0.03,Wunderground v.1.15,2013-03-06 20:35:00,
2013-03-07 06:45:00,76.0,75.7,29.74,ESE,108,0.0,9.0,99,0.00,,,0.03,Wunderground v.1.15,2013-03-06 20:45:00,
2013-03-07 06:55:00,76.0,75.7,29.75,ESE,109,0.0,9.0,99,0.00,,,0.03,Wunderground v.1.15,2013-03-06 20:55:00,
2013-03-07 07:00:00,76.0,75.7,29.75,ESE,108,0.0,1.0,99,0.00,,,0.03,Wunderground v.1.15,2013-03-06 21:00:00,
2013-03-07 07:10:00,76.0,75.7,29.75,ESE,108,0.0,2.0,99,0.00,,,0.03,Wunderground v.1.15,2013-03-06 21:10:00,